sensor_id;sensor_type;location;lat;lon;timestamp;pressure;altitude;pressure_sealevel;temperature;humidity
47761;BME280;33524;55.434;38.520;2022-10-23T00:01:48;100511.72;;;3.90;100.00
47761;BME280;33524;55.434;38.520;2022-10-23T00:04:20;100515.63;;;4.00;100.00
47761;BME280;33524;55.434;38.520;2022-10-23T00:06:50;100513.44;;;3.91;100.00
47761;BME280;33524;55.434;38.520;2022-10-23T00:09:21;100502.25;;;3.89;100.00
47761;BME280;33524;55.434;38.520;2022-10-23T00:11:50;100504.66;;;3.93;100.00
47761;BME280;33524;55.434;38.520;2022-10-23T00:14:23;100509.62;;;3.98;100.00
47761;BME280;33524;55.434;38.520;2022-10-23T00:16:51;100503.09;;;3.89;100.00
47761;BME280;33524;55.434;38.520;2022-10-23T00:19:19;100495.00;;;3.95;100.00
47761;BME280;33524;55.434;38.520;2022-10-23T00:21:47;100477.28;;;3.84;100.00
47761;BME280;33524;55.434;38.520;2022-10-23T00:24:15;100488.94;;;3.95;100.00
47761;BME280;33524;55.434;38.520;2022-10-23T00:26:43;100477.63;;;3.96;100.00
47761;BME280;33524;55.434;38.520;2022-10-23T00:29:11;100481.22;;;3.93;100.00
47761;BME280;33524;55.434;38.520;2022-10-23T00:31:39;100474.09;;;3.97;100.00
47761;BME280;33524;55.434;38.520;2022-10-23T00:34:07;100465.25;;;4.01;100.00
47761;BME280;33524;55.434;38.520;2022-10-23T00:36:36;100464.47;;;3.99;100.00
47761;BME280;33524;55.434;38.520;2022-10-23T00:39:04;100465.47;;;3.96;100.00
47761;BME280;33524;55.434;38.520;2022-10-23T00:41:33;100458.22;;;4.03;100.00
47761;BME280;33524;55.434;38.520;2022-10-23T00:44:08;100459.66;;;4.10;100.00
47761;BME280;33524;55.434;38.520;2022-10-23T00:46:38;100459.00;;;4.05;100.00
47761;BME280;33524;55.434;38.520;2022-10-23T00:49:06;100436.06;;;3.94;100.00
47761;BME280;33524;55.434;38.520;2022-10-23T00:51:40;100456.53;;;4.02;100.00
47761;BME280;33524;55.434;38.520;2022-10-23T00:54:11;100451.97;;;4.07;100.00
47761;BME280;33524;55.434;38.520;2022-10-23T00:57:01;100450.69;;;3.97;100.00
47761;BME280;33524;55.434;38.520;2022-10-23T00:59:30;100443.25;;;4.08;99.08
47761;BME280;33524;55.434;38.520;2022-10-23T01:01:58;100437.50;;;4.01;99.83
47761;BME280;33524;55.434;38.520;2022-10-23T01:04:27;100439.81;;;3.89;100.00
47761;BME280;33524;55.434;38.520;2022-10-23T01:07:04;100436.16;;;3.93;100.00
47761;BME280;33524;55.434;38.520;2022-10-23T01:09:50;100428.62;;;3.87;99.80
47761;BME280;33524;55.434;38.520;2022-10-23T01:12:49;100418.31;;;3.83;99.25
47761;BME280;33524;55.434;38.520;2022-10-23T01:15:36;100424.72;;;3.76;99.49
47761;BME280;33524;55.434;38.520;2022-10-23T01:18:15;100423.03;;;3.75;98.69
47761;BME280;33524;55.434;38.520;2022-10-23T01:20:53;100426.34;;;3.58;98.80
47761;BME280;33524;55.434;38.520;2022-10-23T01:23:48;100420.19;;;3.40;99.47
47761;BME280;33524;55.434;38.520;2022-10-23T01:29:35;100405.25;;;3.25;98.77
47761;BME280;33524;55.434;38.520;2022-10-23T01:32:11;100411.34;;;3.24;99.26
47761;BME280;33524;55.434;38.520;2022-10-23T01:34:45;100398.91;;;3.31;98.74
47761;BME280;33524;55.434;38.520;2022-10-23T01:37:20;100409.78;;;3.40;98.61
47761;BME280;33524;55.434;38.520;2022-10-23T01:39:53;100414.25;;;3.37;98.59
47761;BME280;33524;55.434;38.520;2022-10-23T01:42:28;100409.97;;;3.36;98.46
47761;BME280;33524;55.434;38.520;2022-10-23T01:45:12;100411.75;;;3.35;98.10
47761;BME280;33524;55.434;38.520;2022-10-23T01:47:44;100401.12;;;3.19;98.22
47761;BME280;33524;55.434;38.520;2022-10-23T01:50:13;100405.09;;;3.28;98.00
47761;BME280;33524;55.434;38.520;2022-10-23T01:52:43;100411.22;;;3.27;97.90
47761;BME280;33524;55.434;38.520;2022-10-23T01:55:12;100398.59;;;3.18;97.81
47761;BME280;33524;55.434;38.520;2022-10-23T01:57:43;100401.72;;;3.26;97.63
47761;BME280;33524;55.434;38.520;2022-10-23T02:00:14;100390.69;;;3.21;97.46
47761;BME280;33524;55.434;38.520;2022-10-23T02:02:51;100396.25;;;3.32;96.82
47761;BME280;33524;55.434;38.520;2022-10-23T02:05:29;100395.94;;;3.40;96.59
47761;BME280;33524;55.434;38.520;2022-10-23T02:07:57;100393.47;;;3.37;96.61
47761;BME280;33524;55.434;38.520;2022-10-23T02:10:34;100385.87;;;3.32;96.91
47761;BME280;33524;55.434;38.520;2022-10-23T02:19:09;100366.37;;;3.42;95.74
47761;BME280;33524;55.434;38.520;2022-10-23T02:22:02;100376.50;;;3.28;96.45
47761;BME280;33524;55.434;38.520;2022-10-23T02:24:49;100369.91;;;3.21;96.52
47761;BME280;33524;55.434;38.520;2022-10-23T02:27:28;100375.28;;;3.16;96.84
47761;BME280;33524;55.434;38.520;2022-10-23T02:30:07;100376.84;;;3.20;96.51
47761;BME280;33524;55.434;38.520;2022-10-23T02:32:38;100380.84;;;3.07;97.03
47761;BME280;33524;55.434;38.520;2022-10-23T02:35:10;100364.53;;;3.03;97.14
47761;BME280;33524;55.434;38.520;2022-10-23T02:37:38;100366.22;;;2.84;96.99
47761;BME280;33524;55.434;38.520;2022-10-23T02:40:08;100371.16;;;2.90;97.73
47761;BME280;33524;55.434;38.520;2022-10-23T02:43:01;100376.56;;;2.86;97.92
47761;BME280;33524;55.434;38.520;2022-10-23T02:45:48;100382.94;;;2.77;97.27
47761;BME280;33524;55.434;38.520;2022-10-23T02:48:22;100374.25;;;2.78;97.59
47761;BME280;33524;55.434;38.520;2022-10-23T02:58:56;100371.12;;;2.70;97.48
47761;BME280;33524;55.434;38.520;2022-10-23T03:01:37;100357.66;;;2.60;97.45
47761;BME280;33524;55.434;38.520;2022-10-23T03:04:09;100344.34;;;2.47;97.81
47761;BME280;33524;55.434;38.520;2022-10-23T03:06:38;100355.00;;;2.61;97.89
47761;BME280;33524;55.434;38.520;2022-10-23T03:09:08;100352.47;;;2.60;97.72
47761;BME280;33524;55.434;38.520;2022-10-23T03:11:38;100352.91;;;2.49;97.32
47761;BME280;33524;55.434;38.520;2022-10-23T03:14:06;100362.31;;;2.52;98.34
47761;BME280;33524;55.434;38.520;2022-10-23T03:16:34;100350.19;;;2.52;98.06
47761;BME280;33524;55.434;38.520;2022-10-23T03:19:02;100350.50;;;2.45;97.97
47761;BME280;33524;55.434;38.520;2022-10-23T03:21:30;100347.94;;;2.43;97.83
47761;BME280;33524;55.434;38.520;2022-10-23T03:23:58;100342.75;;;2.43;98.37
47761;BME280;33524;55.434;38.520;2022-10-23T03:26:27;100332.75;;;2.34;97.99
47761;BME280;33524;55.434;38.520;2022-10-23T03:28:55;100338.59;;;2.39;98.14
47761;BME280;33524;55.434;38.520;2022-10-23T03:31:23;100328.69;;;2.27;98.35
47761;BME280;33524;55.434;38.520;2022-10-23T03:33:53;100334.81;;;2.26;98.70
47761;BME280;33524;55.434;38.520;2022-10-23T03:36:21;100338.06;;;2.31;98.17
47761;BME280;33524;55.434;38.520;2022-10-23T03:38:49;100337.41;;;2.26;98.14
47761;BME280;33524;55.434;38.520;2022-10-23T03:41:20;100334.50;;;2.11;97.98
47761;BME280;33524;55.434;38.520;2022-10-23T03:43:48;100338.13;;;2.07;98.47
47761;BME280;33524;55.434;38.520;2022-10-23T03:46:16;100338.34;;;2.01;98.83
47761;BME280;33524;55.434;38.520;2022-10-23T03:48:44;100334.78;;;2.04;98.85
47761;BME280;33524;55.434;38.520;2022-10-23T03:51:12;100333.06;;;2.02;98.37
47761;BME280;33524;55.434;38.520;2022-10-23T03:53:40;100340.06;;;2.00;98.34
47761;BME280;33524;55.434;38.520;2022-10-23T03:56:08;100329.66;;;2.02;98.20
47761;BME280;33524;55.434;38.520;2022-10-23T03:58:39;100322.81;;;1.99;98.24
47761;BME280;33524;55.434;38.520;2022-10-23T04:01:10;100324.50;;;1.78;98.63
47761;BME280;33524;55.434;38.520;2022-10-23T04:03:39;100324.09;;;1.89;99.06
47761;BME280;33524;55.434;38.520;2022-10-23T04:06:07;100318.84;;;1.91;98.68
47761;BME280;33524;55.434;38.520;2022-10-23T04:08:35;100326.41;;;1.73;99.10
47761;BME280;33524;55.434;38.520;2022-10-23T04:11:07;100335.59;;;1.82;98.60
47761;BME280;33524;55.434;38.520;2022-10-23T04:13:36;100322.34;;;1.66;98.17
47761;BME280;33524;55.434;38.520;2022-10-23T04:16:04;100327.59;;;1.88;98.60
47761;BME280;33524;55.434;38.520;2022-10-23T04:18:32;100328.25;;;1.93;97.89
47761;BME280;33524;55.434;38.520;2022-10-23T04:21:00;100306.09;;;1.61;98.00
47761;BME280;33524;55.434;38.520;2022-10-23T04:23:28;100315.56;;;1.86;98.41
47761;BME280;33524;55.434;38.520;2022-10-23T04:25:56;100316.59;;;1.81;98.07
47761;BME280;33524;55.434;38.520;2022-10-23T04:28:25;100318.41;;;1.56;98.82
47761;BME280;33524;55.434;38.520;2022-10-23T04:30:53;100323.44;;;1.84;98.53
47761;BME280;33524;55.434;38.520;2022-10-23T04:33:22;100316.53;;;1.83;98.38
47761;BME280;33524;55.434;38.520;2022-10-23T04:35:51;100323.25;;;1.89;98.11
47761;BME280;33524;55.434;38.520;2022-10-23T04:38:22;100313.88;;;1.85;98.11
47761;BME280;33524;55.434;38.520;2022-10-23T04:40:50;100306.91;;;1.87;98.07
47761;BME280;33524;55.434;38.520;2022-10-23T04:43:19;100302.59;;;1.86;97.88
47761;BME280;33524;55.434;38.520;2022-10-23T04:45:48;100308.66;;;2.08;97.39
47761;BME280;33524;55.434;38.520;2022-10-23T04:48:17;100305.72;;;2.17;96.68
47761;BME280;33524;55.434;38.520;2022-10-23T04:50:58;100300.91;;;2.07;96.94
47761;BME280;33524;55.434;38.520;2022-10-23T04:53:27;100298.03;;;2.14;97.52
47761;BME280;33524;55.434;38.520;2022-10-23T04:55:57;100294.97;;;2.27;96.92
47761;BME280;33524;55.434;38.520;2022-10-23T04:58:27;100296.28;;;2.37;96.67
47761;BME280;33524;55.434;38.520;2022-10-23T05:00:56;100297.25;;;2.34;96.83
47761;BME280;33524;55.434;38.520;2022-10-23T05:03:25;100307.50;;;2.37;96.78
47761;BME280;33524;55.434;38.520;2022-10-23T05:05:54;100297.78;;;2.42;96.55
47761;BME280;33524;55.434;38.520;2022-10-23T05:08:23;100299.41;;;2.45;96.66
47761;BME280;33524;55.434;38.520;2022-10-23T05:10:53;100299.41;;;2.45;96.92
47761;BME280;33524;55.434;38.520;2022-10-23T05:13:21;100291.44;;;2.50;96.71
47761;BME280;33524;55.434;38.520;2022-10-23T05:15:51;100295.69;;;2.52;96.75
47761;BME280;33524;55.434;38.520;2022-10-23T05:18:26;100283.47;;;2.54;96.66
47761;BME280;33524;55.434;38.520;2022-10-23T05:21:03;100292.56;;;2.65;96.53
47761;BME280;33524;55.434;38.520;2022-10-23T05:23:37;100294.00;;;2.72;96.06
47761;BME280;33524;55.434;38.520;2022-10-23T05:26:08;100288.88;;;2.70;96.05
47761;BME280;33524;55.434;38.520;2022-10-23T05:28:37;100284.19;;;2.78;96.21
47761;BME280;33524;55.434;38.520;2022-10-23T05:31:11;100286.06;;;2.75;97.74
47761;BME280;33524;55.434;38.520;2022-10-23T05:33:41;100284.66;;;2.88;98.38
47761;BME280;33524;55.434;38.520;2022-10-23T05:36:12;100274.47;;;3.04;96.49
47761;BME280;33524;55.434;38.520;2022-10-23T05:38:43;100265.69;;;3.07;98.56
47761;BME280;33524;55.434;38.520;2022-10-23T05:41:12;100273.84;;;3.18;100.00
47761;BME280;33524;55.434;38.520;2022-10-23T05:43:42;100262.50;;;3.20;97.72
47761;BME280;33524;55.434;38.520;2022-10-23T05:46:11;100261.25;;;3.29;100.00
47761;BME280;33524;55.434;38.520;2022-10-23T05:48:43;100266.22;;;3.34;100.00
47761;BME280;33524;55.434;38.520;2022-10-23T05:51:15;100270.81;;;3.48;100.00
47761;BME280;33524;55.434;38.520;2022-10-23T05:53:50;100262.59;;;3.57;100.00
47761;BME280;33524;55.434;38.520;2022-10-23T05:56:21;100270.09;;;3.63;99.83
47761;BME280;33524;55.434;38.520;2022-10-23T05:58:50;100257.66;;;3.70;100.00
47761;BME280;33524;55.434;38.520;2022-10-23T06:01:24;100249.84;;;3.70;98.71
47761;BME280;33524;55.434;38.520;2022-10-23T06:03:55;100257.19;;;3.80;100.00
47761;BME280;33524;55.434;38.520;2022-10-23T06:06:30;100251.28;;;3.77;98.39
47761;BME280;33524;55.434;38.520;2022-10-23T06:09:00;100248.09;;;3.89;100.00
47761;BME280;33524;55.434;38.520;2022-10-23T06:11:31;100254.06;;;3.91;97.94
47761;BME280;33524;55.434;38.520;2022-10-23T06:14:08;100246.81;;;3.98;98.62
47761;BME280;33524;55.434;38.520;2022-10-23T06:16:39;100244.16;;;3.99;96.26
47761;BME280;33524;55.434;38.520;2022-10-23T06:19:12;100238.50;;;4.09;98.43
47761;BME280;33524;55.434;38.520;2022-10-23T06:21:41;100235.81;;;4.10;97.71
47761;BME280;33524;55.434;38.520;2022-10-23T06:24:12;100239.81;;;4.17;98.59
47761;BME280;33524;55.434;38.520;2022-10-23T06:26:44;100245.00;;;4.17;95.45
47761;BME280;33524;55.434;38.520;2022-10-23T06:29:16;100235.47;;;4.18;94.29
47761;BME280;33524;55.434;38.520;2022-10-23T06:31:47;100243.50;;;4.31;99.95
47761;BME280;33524;55.434;38.520;2022-10-23T06:34:17;100235.06;;;4.25;96.42
47761;BME280;33524;55.434;38.520;2022-10-23T06:36:46;100233.87;;;4.33;97.22
47761;BME280;33524;55.434;38.520;2022-10-23T06:39:19;100227.59;;;4.37;95.96
47761;BME280;33524;55.434;38.520;2022-10-23T06:41:58;100220.53;;;4.39;99.62
47761;BME280;33524;55.434;38.520;2022-10-23T06:44:36;100217.25;;;4.35;94.41
47761;BME280;33524;55.434;38.520;2022-10-23T06:47:08;100220.69;;;4.36;96.08
47761;BME280;33524;55.434;38.520;2022-10-23T06:50:15;100209.28;;;4.38;97.77
47761;BME280;33524;55.434;38.520;2022-10-23T06:52:47;100219.31;;;4.46;95.36
47761;BME280;33524;55.434;38.520;2022-10-23T06:55:33;100212.25;;;4.48;93.72
47761;BME280;33524;55.434;38.520;2022-10-23T06:58:06;100207.75;;;4.52;94.35
47761;BME280;33524;55.434;38.520;2022-10-23T07:00:45;100211.13;;;4.54;95.17
47761;BME280;33524;55.434;38.520;2022-10-23T07:03:17;100194.66;;;4.53;94.21
47761;BME280;33524;55.434;38.520;2022-10-23T07:05:48;100191.97;;;4.55;94.57
47761;BME280;33524;55.434;38.520;2022-10-23T07:08:18;100189.13;;;4.59;93.22
47761;BME280;33524;55.434;38.520;2022-10-23T07:10:52;100187.44;;;4.76;95.89
47761;BME280;33524;55.434;38.520;2022-10-23T07:13:24;100196.91;;;4.77;95.50
47761;BME280;33524;55.434;38.520;2022-10-23T07:15:54;100194.44;;;4.91;94.26
47761;BME280;33524;55.434;38.520;2022-10-23T07:18:23;100183.00;;;4.94;95.35
47761;BME280;33524;55.434;38.520;2022-10-23T07:20:57;100177.25;;;5.04;91.89
47761;BME280;33524;55.434;38.520;2022-10-23T07:23:33;100180.88;;;5.18;94.25
47761;BME280;33524;55.434;38.520;2022-10-23T07:26:11;100170.28;;;5.21;90.18
47761;BME280;33524;55.434;38.520;2022-10-23T07:28:51;100161.72;;;5.19;90.39
47761;BME280;33524;55.434;38.520;2022-10-23T07:31:27;100165.22;;;5.18;89.50
47761;BME280;33524;55.434;38.520;2022-10-23T07:34:15;100166.75;;;5.22;92.10
47761;BME280;33524;55.434;38.520;2022-10-23T07:36:49;100171.19;;;5.20;91.39
47761;BME280;33524;55.434;38.520;2022-10-23T07:39:23;100164.91;;;5.24;89.55
47761;BME280;33524;55.434;38.520;2022-10-23T07:41:55;100175.75;;;5.32;89.85
47761;BME280;33524;55.434;38.520;2022-10-23T07:44:25;100162.53;;;5.35;95.29
47761;BME280;33524;55.434;38.520;2022-10-23T07:47:03;100164.16;;;5.38;91.84
47761;BME280;33524;55.434;38.520;2022-10-23T07:49:42;100167.00;;;5.49;93.75
47761;BME280;33524;55.434;38.520;2022-10-23T07:52:13;100159.19;;;5.49;91.94
47761;BME280;33524;55.434;38.520;2022-10-23T07:54:51;100163.03;;;5.58;90.25
47761;BME280;33524;55.434;38.520;2022-10-23T07:57:24;100146.06;;;5.66;90.27
47761;BME280;33524;55.434;38.520;2022-10-23T07:59:53;100149.91;;;5.75;88.32
47761;BME280;33524;55.434;38.520;2022-10-23T08:02:25;100144.91;;;5.86;91.33
47761;BME280;33524;55.434;38.520;2022-10-23T08:05:00;100146.69;;;5.86;91.32
47761;BME280;33524;55.434;38.520;2022-10-23T08:07:30;100145.50;;;5.92;90.05
47761;BME280;33524;55.434;38.520;2022-10-23T08:10:09;100135.41;;;5.85;88.49
47761;BME280;33524;55.434;38.520;2022-10-23T08:12:39;100134.59;;;5.85;88.98
47761;BME280;33524;55.434;38.520;2022-10-23T08:15:21;100141.41;;;5.87;88.38
47761;BME280;33524;55.434;38.520;2022-10-23T08:17:55;100146.59;;;5.87;88.01
47761;BME280;33524;55.434;38.520;2022-10-23T08:20:30;100148.00;;;5.93;88.80
47761;BME280;33524;55.434;38.520;2022-10-23T08:23:06;100140.19;;;6.09;87.85
47761;BME280;33524;55.434;38.520;2022-10-23T08:25:41;100146.00;;;6.14;88.04
47761;BME280;33524;55.434;38.520;2022-10-23T08:28:16;100136.47;;;6.13;87.50
47761;BME280;33524;55.434;38.520;2022-10-23T08:30:51;100130.31;;;6.14;87.11
47761;BME280;33524;55.434;38.520;2022-10-23T08:33:21;100129.38;;;6.15;86.91
47761;BME280;33524;55.434;38.520;2022-10-23T08:35:56;100134.97;;;6.09;86.74
47761;BME280;33524;55.434;38.520;2022-10-23T08:38:26;100132.34;;;6.09;87.01
47761;BME280;33524;55.434;38.520;2022-10-23T08:41:01;100138.00;;;6.01;86.04
47761;BME280;33524;55.434;38.520;2022-10-23T08:43:42;100129.53;;;5.98;87.21
47761;BME280;33524;55.434;38.520;2022-10-23T08:46:27;100121.22;;;6.05;86.41
47761;BME280;33524;55.434;38.520;2022-10-23T08:51:56;100117.66;;;6.22;87.12
47761;BME280;33524;55.434;38.520;2022-10-23T08:54:55;100120.28;;;6.22;86.74
47761;BME280;33524;55.434;38.520;2022-10-23T08:57:34;100119.88;;;6.14;86.10
47761;BME280;33524;55.434;38.520;2022-10-23T09:00:15;100115.84;;;6.09;86.26
47761;BME280;33524;55.434;38.520;2022-10-23T09:02:53;100110.91;;;6.04;87.62
47761;BME280;33524;55.434;38.520;2022-10-23T09:22:43;100108.69;;;6.12;87.64
47761;BME280;33524;55.434;38.520;2022-10-23T09:25:29;100095.75;;;6.25;87.78
47761;BME280;33524;55.434;38.520;2022-10-23T09:28:01;100097.87;;;6.18;86.52
47761;BME280;33524;55.434;38.520;2022-10-23T09:31:17;100093.41;;;6.20;87.13
47761;BME280;33524;55.434;38.520;2022-10-23T09:33:58;100089.47;;;6.13;87.26
47761;BME280;33524;55.434;38.520;2022-10-23T09:36:32;100088.91;;;6.08;86.95
47761;BME280;33524;55.434;38.520;2022-10-23T09:39:21;100072.41;;;6.22;87.26
47761;BME280;33524;55.434;38.520;2022-10-23T09:41:58;100073.06;;;6.25;87.21
47761;BME280;33524;55.434;38.520;2022-10-23T09:44:36;100071.06;;;6.45;87.05
47761;BME280;33524;55.434;38.520;2022-10-23T09:47:25;100066.94;;;6.41;86.87
47761;BME280;33524;55.434;38.520;2022-10-23T09:49:58;100060.31;;;6.35;86.21
47761;BME280;33524;55.434;38.520;2022-10-23T09:52:35;100063.66;;;6.37;87.06
47761;BME280;33524;55.434;38.520;2022-10-23T09:55:23;100054.25;;;6.35;86.49
47761;BME280;33524;55.434;38.520;2022-10-23T09:57:57;100053.59;;;6.31;87.10
47761;BME280;33524;55.434;38.520;2022-10-23T10:00:29;100044.25;;;6.41;86.52
47761;BME280;33524;55.434;38.520;2022-10-23T10:03:20;100049.41;;;6.29;87.42
47761;BME280;33524;55.434;38.520;2022-10-23T10:06:02;100049.94;;;6.34;86.73
47761;BME280;33524;55.434;38.520;2022-10-23T10:08:45;100057.31;;;6.27;87.49
47761;BME280;33524;55.434;38.520;2022-10-23T10:26:10;100030.87;;;6.03;88.93
47761;BME280;33524;55.434;38.520;2022-10-23T10:37:20;100011.69;;;6.04;89.06
47761;BME280;33524;55.434;38.520;2022-10-23T10:43:02;100006.66;;;6.01;88.84
47761;BME280;33524;55.434;38.520;2022-10-23T10:45:40;100008.97;;;6.05;89.63
47761;BME280;33524;55.434;38.520;2022-10-23T10:48:30;100005.25;;;6.10;89.51
47761;BME280;33524;55.434;38.520;2022-10-23T10:51:36;99999.38;;;6.06;88.49
47761;BME280;33524;55.434;38.520;2022-10-23T10:54:42;99993.31;;;6.05;88.94
47761;BME280;33524;55.434;38.520;2022-10-23T10:57:44;99994.72;;;6.11;89.23
47761;BME280;33524;55.434;38.520;2022-10-23T11:00:21;99988.75;;;6.09;88.50
47761;BME280;33524;55.434;38.520;2022-10-23T11:03:33;99986.59;;;6.16;89.12
47761;BME280;33524;55.434;38.520;2022-10-23T11:06:17;99982.31;;;6.00;88.71
47761;BME280;33524;55.434;38.520;2022-10-23T11:09:25;99973.28;;;6.06;89.12
47761;BME280;33524;55.434;38.520;2022-10-23T11:12:29;99970.19;;;5.99;89.13
47761;BME280;33524;55.434;38.520;2022-10-23T11:15:03;99966.38;;;6.05;89.25
47761;BME280;33524;55.434;38.520;2022-10-23T11:17:38;99969.06;;;6.18;88.91
47761;BME280;33524;55.434;38.520;2022-10-23T11:20:25;99966.75;;;6.13;88.83
47761;BME280;33524;55.434;38.520;2022-10-23T11:29:34;99961.53;;;6.13;88.97
47761;BME280;33524;55.434;38.520;2022-10-23T11:38:28;99940.19;;;6.06;89.41
47761;BME280;33524;55.434;38.520;2022-10-23T11:41:23;99939.34;;;6.20;89.23
47761;BME280;33524;55.434;38.520;2022-10-23T11:44:00;99931.41;;;6.07;89.52
47761;BME280;33524;55.434;38.520;2022-10-23T11:46:40;99918.09;;;6.12;89.24
47761;BME280;33524;55.434;38.520;2022-10-23T11:49:25;99927.03;;;6.08;89.64
47761;BME280;33524;55.434;38.520;2022-10-23T11:52:04;99921.81;;;6.08;89.38
47761;BME280;33524;55.434;38.520;2022-10-23T11:54:35;99912.88;;;6.12;89.37
47761;BME280;33524;55.434;38.520;2022-10-23T11:57:12;99908.38;;;6.29;88.92
47761;BME280;33524;55.434;38.520;2022-10-23T12:02:41;99907.06;;;6.21;88.93
47761;BME280;33524;55.434;38.520;2022-10-23T12:05:26;99902.66;;;6.22;88.89
47761;BME280;33524;55.434;38.520;2022-10-23T12:08:19;99898.47;;;6.19;89.28
47761;BME280;33524;55.434;38.520;2022-10-23T12:10:55;99898.69;;;6.16;89.01
47761;BME280;33524;55.434;38.520;2022-10-23T12:13:44;99900.34;;;6.17;89.36
47761;BME280;33524;55.434;38.520;2022-10-23T12:16:34;99895.41;;;6.13;89.79
47761;BME280;33524;55.434;38.520;2022-10-23T12:19:20;99889.25;;;6.14;89.66
47761;BME280;33524;55.434;38.520;2022-10-23T12:22:00;99883.56;;;6.07;89.93
47761;BME280;33524;55.434;38.520;2022-10-23T12:24:59;99888.72;;;6.09;90.24
47761;BME280;33524;55.434;38.520;2022-10-23T12:30:28;99883.19;;;6.13;90.00
47761;BME280;33524;55.434;38.520;2022-10-23T12:33:38;99888.41;;;6.13;90.29
47761;BME280;33524;55.434;38.520;2022-10-23T12:39:34;99880.13;;;6.21;89.52
47761;BME280;33524;55.434;38.520;2022-10-23T12:42:24;99876.09;;;6.15;89.57
47761;BME280;33524;55.434;38.520;2022-10-23T12:45:07;99871.09;;;6.12;90.20
47761;BME280;33524;55.434;38.520;2022-10-23T12:47:46;99864.00;;;6.14;89.81
47761;BME280;33524;55.434;38.520;2022-10-23T12:50:26;99864.75;;;6.16;89.89
47761;BME280;33524;55.434;38.520;2022-10-23T12:53:03;99869.09;;;6.16;90.20
47761;BME280;33524;55.434;38.520;2022-10-23T12:58:32;99861.56;;;6.11;90.60
47761;BME280;33524;55.434;38.520;2022-10-23T13:01:20;99862.50;;;6.10;90.91
47761;BME280;33524;55.434;38.520;2022-10-23T13:04:22;99858.03;;;6.12;91.00
47761;BME280;33524;55.434;38.520;2022-10-23T13:07:03;99847.78;;;6.09;91.69
47761;BME280;33524;55.434;38.520;2022-10-23T13:09:45;99847.78;;;6.09;91.97
47761;BME280;33524;55.434;38.520;2022-10-23T13:12:33;99848.50;;;6.11;91.33
47761;BME280;33524;55.434;38.520;2022-10-23T13:17:41;99843.50;;;6.08;92.00
47761;BME280;33524;55.434;38.520;2022-10-23T13:23:27;99836.59;;;6.07;92.98
47761;BME280;33524;55.434;38.520;2022-10-23T13:26:22;99830.53;;;6.06;93.45
47761;BME280;33524;55.434;38.520;2022-10-23T13:32:11;99823.00;;;6.02;95.26
47761;BME280;33524;55.434;38.520;2022-10-23T13:34:57;99823.75;;;6.04;95.32
47761;BME280;33524;55.434;38.520;2022-10-23T13:37:51;99822.78;;;6.05;95.91
47761;BME280;33524;55.434;38.520;2022-10-23T13:40:30;99821.00;;;6.05;95.99
47761;BME280;33524;55.434;38.520;2022-10-23T13:43:13;99814.97;;;6.05;95.79
47761;BME280;33524;55.434;38.520;2022-10-23T13:46:02;99809.00;;;6.03;94.93
47761;BME280;33524;55.434;38.520;2022-10-23T13:48:37;99815.78;;;6.05;95.35
47761;BME280;33524;55.434;38.520;2022-10-23T13:51:23;99798.75;;;6.00;93.98
47761;BME280;33524;55.434;38.520;2022-10-23T13:53:55;99802.84;;;6.04;93.07
47761;BME280;33524;55.434;38.520;2022-10-23T13:56:29;99796.50;;;6.08;93.31
47761;BME280;33524;55.434;38.520;2022-10-23T13:59:11;99808.81;;;6.06;93.33
47761;BME280;33524;55.434;38.520;2022-10-23T14:01:46;99808.69;;;6.07;93.06
47761;BME280;33524;55.434;38.520;2022-10-23T14:04:27;99809.56;;;6.08;92.88
47761;BME280;33524;55.434;38.520;2022-10-23T14:07:10;99802.66;;;6.07;92.72
47761;BME280;33524;55.434;38.520;2022-10-23T14:09:45;99807.88;;;6.07;93.18
47761;BME280;33524;55.434;38.520;2022-10-23T14:12:24;99800.88;;;6.07;93.38
47761;BME280;33524;55.434;38.520;2022-10-23T14:15:04;99802.13;;;6.02;93.60
47761;BME280;33524;55.434;38.520;2022-10-23T14:17:39;99800.88;;;6.07;93.17
47761;BME280;33524;55.434;38.520;2022-10-23T14:20:21;99798.16;;;6.09;93.37
47761;BME280;33524;55.434;38.520;2022-10-23T14:22:59;99800.03;;;6.07;93.52
47761;BME280;33524;55.434;38.520;2022-10-23T14:25:36;99798.25;;;6.07;93.61
47761;BME280;33524;55.434;38.520;2022-10-23T14:28:10;99800.03;;;6.07;93.01
47761;BME280;33524;55.434;38.520;2022-10-23T14:30:49;99794.81;;;6.07;93.40
47761;BME280;33524;55.434;38.520;2022-10-23T14:33:22;99766.56;;;5.99;92.94
47761;BME280;33524;55.434;38.520;2022-10-23T14:35:51;99799.00;;;6.10;93.22
47761;BME280;33524;55.434;38.520;2022-10-23T14:38:22;99797.03;;;6.13;92.95
47761;BME280;33524;55.434;38.520;2022-10-23T14:41:15;99792.03;;;6.10;92.92
47761;BME280;33524;55.434;38.520;2022-10-23T14:43:49;99798.16;;;6.09;93.26
47761;BME280;33524;55.434;38.520;2022-10-23T14:46:33;99792.94;;;6.09;93.91
47761;BME280;33524;55.434;38.520;2022-10-23T14:49:15;99787.94;;;6.06;93.60
47761;BME280;33524;55.434;38.520;2022-10-23T14:52:00;99782.81;;;6.04;93.00
47761;BME280;33524;55.434;38.520;2022-10-23T14:54:44;99786.16;;;6.06;93.88
47761;BME280;33524;55.434;38.520;2022-10-23T14:57:17;99780.94;;;6.06;93.23
47761;BME280;33524;55.434;38.520;2022-10-23T15:00:03;99781.75;;;6.07;92.14
47761;BME280;33524;55.434;38.520;2022-10-23T15:02:41;99781.75;;;6.07;91.72
47761;BME280;33524;55.434;38.520;2022-10-23T15:05:25;99779.16;;;6.07;93.35
47761;BME280;33524;55.434;38.520;2022-10-23T15:08:05;99778.22;;;6.08;91.43
47761;BME280;33524;55.434;38.520;2022-10-23T15:10:59;99773.94;;;6.07;92.44
47761;BME280;33524;55.434;38.520;2022-10-23T15:13:30;99773.94;;;6.07;92.15
47761;BME280;33524;55.434;38.520;2022-10-23T15:16:08;99773.19;;;6.05;92.87
47761;BME280;33524;55.434;38.520;2022-10-23T15:18:40;99768.62;;;5.94;94.00